createdAt,value
2022-08-24T00:02:03.819Z,100.00
2022-08-24T00:07:19.147Z,100.00
2022-08-24T00:12:31.514Z,100.00
2022-08-24T00:17:36.507Z,100.00
2022-08-24T00:22:41.224Z,100.00
2022-08-24T00:27:45.170Z,100.00
2022-08-24T00:32:50.497Z,100.00
2022-08-24T00:37:55.379Z,100.00
2022-08-24T00:43:03.365Z,100.00
2022-08-24T00:48:14.876Z,100.00
2022-08-24T00:53:25.990Z,100.00
2022-08-24T00:58:35.560Z,100.00
2022-08-24T01:03:42.753Z,100.00
2022-08-24T01:08:46.769Z,100.00
2022-08-24T01:13:58.606Z,100.00
2022-08-24T01:19:05.394Z,100.00
2022-08-24T01:24:14.632Z,100.00
2022-08-24T01:29:23.731Z,100.00
2022-08-24T01:34:27.863Z,100.00
2022-08-24T01:39:37.382Z,100.00
2022-08-24T01:44:45.527Z,100.00
2022-08-24T01:49:50.648Z,100.00
2022-08-24T01:54:59.380Z,100.00
2022-08-24T02:00:03.625Z,100.00
2022-08-24T02:05:18.049Z,100.00
2022-08-24T02:10:25.951Z,100.00
2022-08-24T02:15:33.233Z,100.00
2022-08-24T02:20:38.402Z,100.00
2022-08-24T02:25:44.365Z,100.00
2022-08-24T02:30:48.283Z,100.00
2022-08-24T02:35:52.598Z,100.00
2022-08-24T02:40:58.112Z,100.00
2022-08-24T02:46:02.495Z,100.00
2022-08-24T02:51:07.375Z,100.00
2022-08-24T02:56:13.128Z,100.00
2022-08-24T03:01:24.042Z,100.00
2022-08-24T03:06:29.271Z,100.00
2022-08-24T03:11:35.327Z,100.00
2022-08-24T03:16:39.366Z,100.00
2022-08-24T03:21:44.179Z,100.00
2022-08-24T03:26:50.534Z,100.00
2022-08-24T03:31:54.297Z,100.00
2022-08-24T03:36:58.417Z,100.00
2022-08-24T03:42:03.721Z,100.00
2022-08-24T03:47:08.568Z,100.00
2022-08-24T03:52:13.142Z,100.00
2022-08-24T03:57:19.630Z,100.00
2022-08-24T04:02:23.462Z,100.00
2022-08-24T04:07:27.539Z,100.00
2022-08-24T04:12:32.795Z,100.00
2022-08-24T04:17:36.562Z,100.00
2022-08-24T04:22:41.683Z,100.00
2022-08-24T04:27:47.484Z,100.00
2022-08-24T04:32:51.314Z,100.00
2022-08-24T04:37:55.892Z,100.00
2022-08-24T04:43:01.692Z,100.00
2022-08-24T04:48:05.875Z,100.00
2022-08-24T04:53:10.341Z,100.00
2022-08-24T04:58:17.109Z,100.00
2022-08-24T05:03:20.908Z,100.00
2022-08-24T05:08:31.325Z,100.00
2022-08-24T05:13:36.779Z,100.00
2022-08-24T05:18:41.113Z,100.00
2022-08-24T05:24:09.652Z,100.00
2022-08-24T05:29:15.284Z,100.00
2022-08-24T05:34:35.421Z,100.00
2022-08-24T05:39:40.122Z,100.00
2022-08-24T05:44:47.312Z,100.00
2022-08-24T05:50:02.612Z,100.00
2022-08-24T05:55:07.717Z,100.00
2022-08-24T06:00:26.455Z,100.00
2022-08-24T06:05:31.478Z,100.00
2022-08-24T06:10:41.915Z,100.00
2022-08-24T06:16:04.895Z,100.00
2022-08-24T06:21:16.411Z,100.00
2022-08-24T06:31:41.920Z,100.00
2022-08-24T06:36:47.748Z,100.00
2022-08-24T06:41:55.984Z,100.00
2022-08-24T06:47:16.399Z,100.00
2022-08-24T06:52:20.133Z,100.00
2022-08-24T06:57:24.075Z,100.00
2022-08-24T07:02:31.275Z,100.00
2022-08-24T07:07:35.285Z,100.00
2022-08-24T07:12:39.268Z,100.00
2022-08-24T07:17:44.367Z,100.00
2022-08-24T07:22:48.232Z,100.00
2022-08-24T07:27:52.131Z,100.00
2022-08-24T07:32:58.777Z,100.00
2022-08-24T07:38:06.590Z,100.00
2022-08-24T07:43:10.499Z,100.00
2022-08-24T07:48:15.736Z,100.00
2022-08-24T07:53:27.908Z,100.00
2022-08-24T07:58:44.360Z,100.00
2022-08-24T08:03:52.403Z,100.00
2022-08-24T08:08:56.291Z,100.00
2022-08-24T08:14:00.543Z,100.00
2022-08-24T08:19:10.075Z,100.00
2022-08-24T08:24:16.731Z,100.00
2022-08-24T08:29:29.372Z,100.00
2022-08-24T08:34:35.568Z,100.00
2022-08-24T08:39:40.724Z,100.00
2022-08-24T08:44:59.364Z,100.00
2022-08-24T08:50:14.386Z,100.00
2022-08-24T08:55:29.421Z,100.00
2022-08-24T09:00:53.741Z,100.00
2022-08-24T09:06:20.133Z,100.00
2022-08-24T09:11:35.017Z,100.00
2022-08-24T09:16:50.993Z,100.00
2022-08-24T09:22:09.317Z,100.00
2022-08-24T09:27:23.910Z,100.00
2022-08-24T09:32:39.358Z,93.58
2022-08-24T09:38:00.823Z,90.06
2022-08-24T09:43:41.998Z,81.93
2022-08-24T09:49:17.492Z,86.37
2022-08-24T09:54:49.409Z,83.92
2022-08-24T10:00:12.246Z,87.78
2022-08-24T10:05:28.085Z,85.11
2022-08-24T10:10:40.988Z,80.72
2022-08-24T10:15:54.573Z,76.83
2022-08-24T10:21:10.052Z,71.57
2022-08-24T10:26:41.355Z,68.91
2022-08-24T10:32:08.592Z,66.06
2022-08-24T10:37:33.057Z,65.59
2022-08-24T10:43:24.045Z,65.34
2022-08-24T10:49:02.290Z,67.32
2022-08-24T10:54:13.359Z,67.05
2022-08-24T10:59:27.910Z,61.69
2022-08-24T11:04:35.429Z,65.20
2022-08-24T11:09:48.906Z,68.72
2022-08-24T11:14:55.610Z,73.18
2022-08-24T11:20:00.193Z,69.97
2022-08-24T11:25:34.998Z,69.35
2022-08-24T11:30:43.127Z,68.55
2022-08-24T11:35:46.878Z,69.03
2022-08-24T11:40:54.854Z,60.65
2022-08-24T11:46:09.313Z,59.40
2022-08-24T11:51:21.338Z,65.12
2022-08-24T11:56:32.910Z,64.53
2022-08-24T12:01:46.433Z,63.05
2022-08-24T12:07:01.145Z,57.95
2022-08-24T12:12:13.749Z,63.62
2022-08-24T12:17:27.949Z,57.57
2022-08-24T12:22:33.300Z,52.57
2022-08-24T12:27:39.631Z,56.98
2022-08-24T12:32:48.853Z,60.75
2022-08-24T12:37:59.243Z,61.28
2022-08-24T12:43:08.715Z,57.22
2022-08-24T12:48:17.827Z,56.12
2022-08-24T12:53:45.641Z,55.21
2022-08-24T12:58:58.477Z,50.70
2022-08-24T13:04:15.611Z,48.44
2022-08-24T13:09:32.068Z,52.36
2022-08-24T13:14:35.884Z,57.37
2022-08-24T13:19:44.520Z,56.46
2022-08-24T13:24:54.634Z,58.10
2022-08-24T13:30:19.479Z,60.36
2022-08-24T13:35:58.228Z,59.35
2022-08-24T13:41:11.663Z,57.73
2022-08-24T13:46:22.321Z,54.97
2022-08-24T13:51:38.406Z,50.38
2022-08-24T13:57:01.485Z,53.15
2022-08-24T14:02:28.012Z,55.02
2022-08-24T14:07:50.927Z,53.39
2022-08-24T14:13:01.336Z,53.58
2022-08-24T14:18:12.017Z,54.52
2022-08-24T14:23:30.008Z,55.33
2022-08-24T14:28:40.462Z,54.99
2022-08-24T14:33:52.876Z,77.75
2022-08-24T14:39:06.690Z,92.42
2022-08-24T14:44:30.953Z,89.90
2022-08-24T14:49:47.481Z,98.02
2022-08-24T14:55:13.791Z,95.78
2022-08-24T15:00:20.581Z,89.55
2022-08-24T15:05:37.256Z,88.04
2022-08-24T15:10:48.860Z,88.37
2022-08-24T15:15:57.777Z,88.28
2022-08-24T15:21:10.928Z,93.79
2022-08-24T15:26:24.381Z,91.28
2022-08-24T15:31:30.992Z,98.47
2022-08-24T15:36:35.428Z,99.14
2022-08-24T15:41:43.083Z,98.90
2022-08-24T15:46:50.480Z,97.07
2022-08-24T15:51:58.212Z,93.92
2022-08-24T15:57:06.740Z,92.87
2022-08-24T16:02:30.617Z,89.36
2022-08-24T16:08:05.806Z,91.87
2022-08-24T16:13:19.179Z,96.43
2022-08-24T16:18:23.201Z,100.00
2022-08-24T16:23:31.585Z,100.00
2022-08-24T16:28:38.402Z,100.00
2022-08-24T16:33:49.628Z,100.00
2022-08-24T16:38:53.597Z,100.00
2022-08-24T16:48:46.506Z,100.00
2022-08-24T16:53:50.140Z,100.00
2022-08-24T16:58:54.103Z,100.00
2022-08-24T17:03:59.217Z,100.00
2022-08-24T17:09:03.241Z,100.00
2022-08-24T17:14:07.120Z,100.00
2022-08-24T17:19:15.937Z,100.00
2022-08-24T17:24:23.189Z,100.00
2022-08-24T17:29:27.998Z,100.00
2022-08-24T17:34:33.573Z,100.00
2022-08-24T17:39:37.676Z,100.00
2022-08-24T17:44:42.131Z,100.00
2022-08-24T17:49:48.531Z,100.00
2022-08-24T17:54:52.141Z,100.00
2022-08-24T17:59:55.961Z,100.00
2022-08-24T18:05:01.099Z,100.00
2022-08-24T18:10:07.795Z,100.00
2022-08-24T18:15:15.514Z,100.00
2022-08-24T18:20:25.994Z,100.00
2022-08-24T18:25:30.401Z,100.00
2022-08-24T18:30:34.090Z,100.00
2022-08-24T18:35:39.278Z,100.00
2022-08-24T18:40:52.068Z,100.00
2022-08-24T18:45:56.938Z,100.00
2022-08-24T18:51:02.662Z,100.00
2022-08-24T18:56:11.784Z,100.00
2022-08-24T19:01:16.476Z,100.00
2022-08-24T19:06:21.652Z,100.00
2022-08-24T19:11:26.109Z,100.00
2022-08-24T19:16:29.826Z,100.00
2022-08-24T19:21:38.050Z,100.00
2022-08-24T19:26:41.753Z,100.00
2022-08-24T19:31:45.865Z,100.00
2022-08-24T19:36:51.136Z,100.00
2022-08-24T19:41:55.137Z,100.00
2022-08-24T19:46:59.374Z,100.00
2022-08-24T19:52:05.524Z,100.00
2022-08-24T19:57:31.209Z,100.00
2022-08-24T20:02:35.303Z,100.00
2022-08-24T20:07:40.998Z,100.00
2022-08-24T20:12:44.868Z,100.00
2022-08-24T20:17:50.211Z,100.00
2022-08-24T20:22:56.021Z,100.00
2022-08-24T20:28:27.680Z,100.00
2022-08-24T20:33:28.033Z,100.00
2022-08-24T20:38:33.965Z,100.00
2022-08-24T20:43:37.695Z,100.00
2022-08-24T20:48:42.990Z,100.00
2022-08-24T20:53:48.372Z,100.00
2022-08-24T20:58:52.248Z,100.00
2022-08-24T21:03:59.273Z,100.00
2022-08-24T21:09:08.108Z,100.00
2022-08-24T21:14:18.231Z,100.00
2022-08-24T21:19:22.008Z,100.00
2022-08-24T21:24:27.223Z,100.00
2022-08-24T21:29:31.436Z,100.00
2022-08-24T21:34:44.132Z,100.00
2022-08-24T21:39:49.588Z,100.00
2022-08-24T21:44:53.568Z,100.00
2022-08-24T21:49:57.380Z,100.00
2022-08-24T21:55:02.968Z,100.00
2022-08-24T22:00:11.831Z,100.00
2022-08-24T22:05:16.298Z,100.00
2022-08-24T22:10:21.757Z,100.00
2022-08-24T22:15:25.463Z,100.00
2022-08-24T22:20:29.223Z,100.00
2022-08-24T22:25:34.335Z,100.00
2022-08-24T22:30:38.112Z,100.00
2022-08-24T22:35:44.813Z,100.00
2022-08-24T22:40:56.218Z,100.00
2022-08-24T22:45:59.878Z,100.00
2022-08-24T22:51:04.249Z,100.00
2022-08-24T22:56:16.806Z,100.00
2022-08-24T23:01:22.830Z,100.00
2022-08-24T23:06:27.939Z,100.00
2022-08-24T23:11:33.499Z,100.00
2022-08-24T23:16:39.562Z,100.00
2022-08-24T23:21:43.748Z,100.00
2022-08-24T23:26:49.005Z,100.00
2022-08-24T23:31:53.671Z,100.00
2022-08-24T23:36:57.408Z,100.00
2022-08-24T23:42:02.550Z,100.00
2022-08-24T23:47:06.729Z,100.00
2022-08-24T23:52:12.404Z,100.00
2022-08-24T23:57:32.272Z,100.00
